19:31
Airports
History
Links
Donate
Help keep this website running!
PayPal
Bitcoin
Information on this page is community maintained and may be outdated or inaccurate and is intended for reference only or PC simulator navigating.
Always use approved charts for navigating.
LIPQ
Ronchi Dei Legionari
Ronchi Dei Legionari (LIPQ)
San Canzian d'Isonzo, Friuli-Venezia Giulia, Italy (34075)
(C)
Lat/Lng:45° 49' 40.29" N / 13° 27' 59.99" E
45.827857 / 13.466664
Elevation:37'ft 11mMSL
ID / ICAO:LIPQ
Runways:1
Longest:(09-27) 2,993.4m 9,821ft Asphalt
Controlled:Yes
Distance To
Airport ID:
Airport Radio Frequencies
Tower: 130.2
Approach: 119.15
Nearby VORs <50NM
Nearby NDBs
METARUpdated 05-27-17 19:20 GMT
Altimeter: 30.09
Visibility: 6.2 statute miles
Wind: 7 knots (120°)
Temp: 22°c 72°f
Humidity: 78.1%

METAR: LIPQ 271920Z 12007KT CAVOK 22/18 Q1019

(Powered by phpweather)
Runway 09 / 27
Dimensions:2993.4 x 45.1m 9821' x 148'ft
Surface:Asphalt
Edge Lights:Medium intensity
Runway 09 [A]Runway 27 [B]
Heading:090°TH 270°TH
Lat:
Lng:
45° 49' 40.65"N
13° 26' 50.48"E
45° 49' 39.92"N
13° 29' 9.5"E
ALS:Calvert ILS Cat II
TDZ:Yes, lighted
User Notes and Comments
Google Map
Nearby Airports
(C) Gorizia 8.4 NM
LIPG NE 49°
4 Udine Campoformido 19.5 NM
LIPD NW 316°
4 Fraforeano Ronchis 21.7 NM
LIDJ W 270°
(C) RIVOLTO 22.6 NM
LIPI (WX) WNW 297°
(C) PORTOROZ 25.6 NM
LJPZ (WX) SSE 163°
(U) Casarsa 32.3 NM
LIDK WNW 285°
(C) AVIANO AB 44.1 NM
LIPA (WX) WNW 288°
VFR Chart
Flight Planning at SkyVector.com